sensor_id;sensor_type;location;lat;lon;timestamp;pressure;altitude;pressure_sealevel;temperature;humidity
2178;BME280;1095;50.992;6.798;2024-02-21T00:09:45;101826.22;;;8.70;78.43
2178;BME280;1095;50.992;6.798;2024-02-21T00:12:39;101822.66;;;8.71;78.39
2178;BME280;1095;50.992;6.798;2024-02-21T00:15:14;101818.41;;;8.69;78.74
2178;BME280;1095;50.992;6.798;2024-02-21T00:21:15;101813.00;;;8.70;78.87
2178;BME280;1095;50.992;6.798;2024-02-21T00:27:27;101805.59;;;8.63;79.45
2178;BME280;1095;50.992;6.798;2024-02-21T00:30:08;101809.53;;;8.70;79.10
2178;BME280;1095;50.992;6.798;2024-02-21T00:32:39;101786.91;;;8.66;79.38
2178;BME280;1095;50.992;6.798;2024-02-21T00:41:36;101772.31;;;8.60;80.60
2178;BME280;1095;50.992;6.798;2024-02-21T00:44:43;101786.63;;;8.56;80.04
2178;BME280;1095;50.992;6.798;2024-02-21T00:47:28;101775.88;;;8.59;80.17
2178;BME280;1095;50.992;6.798;2024-02-21T00:59:37;101762.22;;;8.52;80.44
2178;BME280;1095;50.992;6.798;2024-02-21T01:03:55;101752.72;;;8.50;80.87
2178;BME280;1095;50.992;6.798;2024-02-21T01:09:16;101753.44;;;8.52;80.56
2178;BME280;1095;50.992;6.798;2024-02-21T01:22:26;101743.47;;;8.57;80.37
2178;BME280;1095;50.992;6.798;2024-02-21T01:24:58;101746.31;;;8.54;80.07
2178;BME280;1095;50.992;6.798;2024-02-21T01:27:35;101739.22;;;8.54;80.40
2178;BME280;1095;50.992;6.798;2024-02-21T01:30:10;101742.81;;;8.53;80.35
2178;BME280;1095;50.992;6.798;2024-02-21T01:33:16;101740.94;;;8.55;80.50
2178;BME280;1095;50.992;6.798;2024-02-21T01:42:35;101733.19;;;8.52;80.37
2178;BME280;1095;50.992;6.798;2024-02-21T01:45:21;101727.84;;;8.54;79.87
2178;BME280;1095;50.992;6.798;2024-02-21T01:48:15;101719.25;;;8.50;80.66
2178;BME280;1095;50.992;6.798;2024-02-21T01:50:43;101707.09;;;8.48;80.82
2178;BME280;1095;50.992;6.798;2024-02-21T01:53:40;101711.34;;;8.50;80.64
2178;BME280;1095;50.992;6.798;2024-02-21T01:58:57;101708.69;;;8.50;80.69
2178;BME280;1095;50.992;6.798;2024-02-21T02:02:07;101699.38;;;8.45;80.55
2178;BME280;1095;50.992;6.798;2024-02-21T02:05:12;101691.19;;;8.49;80.88
2178;BME280;1095;50.992;6.798;2024-02-21T02:07:47;101686.94;;;8.47;80.35
2178;BME280;1095;50.992;6.798;2024-02-21T02:10:30;101682.31;;;8.50;80.74
2178;BME280;1095;50.992;6.798;2024-02-21T02:13:11;101684.97;;;8.50;80.54
2178;BME280;1095;50.992;6.798;2024-02-21T02:15:58;101685.13;;;8.47;80.48
2178;BME280;1095;50.992;6.798;2024-02-21T02:18:39;101678.34;;;8.43;80.76
2178;BME280;1095;50.992;6.798;2024-02-21T02:21:27;101666.88;;;8.44;80.73
2178;BME280;1095;50.992;6.798;2024-02-21T02:24:28;101661.50;;;8.46;81.00
2178;BME280;1095;50.992;6.798;2024-02-21T02:26:57;101652.94;;;8.42;81.21
2178;BME280;1095;50.992;6.798;2024-02-21T02:29:35;101646.06;;;8.40;81.06
2178;BME280;1095;50.992;6.798;2024-02-21T02:32:21;101637.09;;;8.42;81.13
2178;BME280;1095;50.992;6.798;2024-02-21T02:37:50;101633.31;;;8.46;80.73
2178;BME280;1095;50.992;6.798;2024-02-21T02:40:33;101633.31;;;8.46;80.71
2178;BME280;1095;50.992;6.798;2024-02-21T02:43:24;101624.47;;;8.47;81.07
2178;BME280;1095;50.992;6.798;2024-02-21T02:46:10;101628.22;;;8.43;80.96
2178;BME280;1095;50.992;6.798;2024-02-21T02:48:50;101617.78;;;8.42;80.69
2178;BME280;1095;50.992;6.798;2024-02-21T02:51:32;101620.44;;;8.42;80.75
2178;BME280;1095;50.992;6.798;2024-02-21T02:54:13;101623.63;;;8.47;80.49
2178;BME280;1095;50.992;6.798;2024-02-21T03:00:22;101616.56;;;8.47;80.54
2178;BME280;1095;50.992;6.798;2024-02-21T03:03:19;101613.25;;;8.44;80.26
2178;BME280;1095;50.992;6.798;2024-02-21T03:06:11;101611.56;;;8.43;80.58
2178;BME280;1095;50.992;6.798;2024-02-21T03:08:50;101597.72;;;8.39;80.64
2178;BME280;1095;50.992;6.798;2024-02-21T03:11:38;101593.03;;;8.44;80.91
2178;BME280;1095;50.992;6.798;2024-02-21T03:14:37;101592.06;;;8.45;80.49
2178;BME280;1095;50.992;6.798;2024-02-21T03:17:49;101591.31;;;8.43;80.62
2178;BME280;1095;50.992;6.798;2024-02-21T03:20:55;101586.50;;;8.50;80.29
2178;BME280;1095;50.992;6.798;2024-02-21T03:23:56;101591.31;;;8.43;80.44
2178;BME280;1095;50.992;6.798;2024-02-21T03:26:55;101586.03;;;8.43;80.53
2178;BME280;1095;50.992;6.798;2024-02-21T03:30:04;101579.91;;;8.43;80.63
2178;BME280;1095;50.992;6.798;2024-02-21T03:33:04;101567.56;;;8.43;80.21
2178;BME280;1095;50.992;6.798;2024-02-21T03:39:27;101575.28;;;8.46;79.45
2178;BME280;1095;50.992;6.798;2024-02-21T03:42:10;101563.06;;;8.45;80.14
2178;BME280;1095;50.992;6.798;2024-02-21T03:44:38;101563.78;;;8.47;79.90
2178;BME280;1095;50.992;6.798;2024-02-21T03:47:22;101564.09;;;8.43;79.98
2178;BME280;1095;50.992;6.798;2024-02-21T03:49:52;101565.59;;;8.47;80.21
2178;BME280;1095;50.992;6.798;2024-02-21T03:52:38;101569.19;;;8.46;79.96
2178;BME280;1095;50.992;6.798;2024-02-21T03:55:19;101574.94;;;8.38;80.76
2178;BME280;1095;50.992;6.798;2024-02-21T03:57:46;101574.75;;;8.41;80.68
2178;BME280;1095;50.992;6.798;2024-02-21T04:00:15;101567.13;;;8.37;81.15
2178;BME280;1095;50.992;6.798;2024-02-21T04:02:44;101564.19;;;8.41;80.61
2178;BME280;1095;50.992;6.798;2024-02-21T04:05:10;101575.41;;;8.30;81.47
2178;BME280;1095;50.992;6.798;2024-02-21T04:07:37;101569.25;;;8.30;81.41
2178;BME280;1095;50.992;6.798;2024-02-21T04:10:09;101570.31;;;8.27;81.86
2178;BME280;1095;50.992;6.798;2024-02-21T04:12:56;101573.91;;;8.26;81.84
2178;BME280;1095;50.992;6.798;2024-02-21T04:15:40;101563.91;;;8.46;80.73
2178;BME280;1095;50.992;6.798;2024-02-21T04:18:25;101568.03;;;8.35;80.77
2178;BME280;1095;50.992;6.798;2024-02-21T04:27:29;101549.88;;;8.31;81.26
2178;BME280;1095;50.992;6.798;2024-02-21T04:40:01;101544.31;;;8.21;81.64
2178;BME280;1095;50.992;6.798;2024-02-21T04:44:42;101541.03;;;8.18;81.96
2178;BME280;1095;50.992;6.798;2024-02-21T04:46:53;101548.56;;;8.24;81.60
2178;BME280;1095;50.992;6.798;2024-02-21T04:49:52;101550.53;;;8.20;81.40
2178;BME280;1095;50.992;6.798;2024-02-21T04:52:28;101546.88;;;8.23;81.41
2178;BME280;1095;50.992;6.798;2024-02-21T05:05:41;101538.69;;;7.99;83.26
2178;BME280;1095;50.992;6.798;2024-02-21T05:09:11;101532.56;;;7.98;83.30
2178;BME280;1095;50.992;6.798;2024-02-21T05:15:16;101535.31;;;7.97;83.83
2178;BME280;1095;50.992;6.798;2024-02-21T05:18:05;101531.72;;;7.98;84.25
2178;BME280;1095;50.992;6.798;2024-02-21T05:20:46;101542.47;;;7.95;84.52
2178;BME280;1095;50.992;6.798;2024-02-21T05:23:16;101542.19;;;7.99;84.30
2178;BME280;1095;50.992;6.798;2024-02-21T05:26:34;101543.78;;;8.02;83.60
2178;BME280;1095;50.992;6.798;2024-02-21T05:36:19;101512.91;;;8.04;83.21
2178;BME280;1095;50.992;6.798;2024-02-21T05:39:04;101514.59;;;8.05;83.17
2178;BME280;1095;50.992;6.798;2024-02-21T05:59:30;101510.50;;;8.28;77.28
2178;BME280;1095;50.992;6.798;2024-02-21T06:02:42;101506.63;;;8.33;76.51
2178;BME280;1095;50.992;6.798;2024-02-21T06:07:02;101497.28;;;8.42;75.97
2178;BME280;1095;50.992;6.798;2024-02-21T06:09:17;101486.34;;;8.34;76.47
2178;BME280;1095;50.992;6.798;2024-02-21T06:12:30;101486.34;;;8.34;76.63
2178;BME280;1095;50.992;6.798;2024-02-21T06:15:54;101490.78;;;8.33;76.99
2178;BME280;1095;50.992;6.798;2024-02-21T06:18:57;101490.72;;;8.35;76.69
2178;BME280;1095;50.992;6.798;2024-02-21T06:21:41;101483.19;;;8.29;77.42
2178;BME280;1095;50.992;6.798;2024-02-21T06:24:58;101486.34;;;8.34;77.18
2178;BME280;1095;50.992;6.798;2024-02-21T06:27:57;101480.66;;;8.27;77.60
2178;BME280;1095;50.992;6.798;2024-02-21T06:34:14;101477.34;;;8.24;78.59
2178;BME280;1095;50.992;6.798;2024-02-21T06:37:54;101474.91;;;8.21;79.33
2178;BME280;1095;50.992;6.798;2024-02-21T06:40:37;101472.81;;;8.26;78.94
2178;BME280;1095;50.992;6.798;2024-02-21T06:43:20;101457.00;;;8.26;79.35
2178;BME280;1095;50.992;6.798;2024-02-21T06:46:35;101455.13;;;8.28;79.60
2178;BME280;1095;50.992;6.798;2024-02-21T06:50:12;101448.16;;;8.27;79.81
2178;BME280;1095;50.992;6.798;2024-02-21T06:52:51;101454.16;;;8.29;80.51
2178;BME280;1095;50.992;6.798;2024-02-21T07:51:23;101412.69;;;8.18;81.95
2178;BME280;1095;50.992;6.798;2024-02-21T07:54:15;101416.81;;;8.22;82.03
2178;BME280;1095;50.992;6.798;2024-02-21T07:57:20;101412.97;;;8.14;82.82
2178;BME280;1095;50.992;6.798;2024-02-21T08:00:52;101411.19;;;8.14;82.18
2178;BME280;1095;50.992;6.798;2024-02-21T08:03:13;101407.75;;;8.26;81.73
2178;BME280;1095;50.992;6.798;2024-02-21T08:05:48;101403.34;;;8.27;81.61
2178;BME280;1095;50.992;6.798;2024-02-21T08:08:17;101407.84;;;8.25;82.19
2178;BME280;1095;50.992;6.798;2024-02-21T08:10:45;101402.38;;;8.28;82.07
2178;BME280;1095;50.992;6.798;2024-02-21T08:13:12;101387.09;;;8.33;81.26
2178;BME280;1095;50.992;6.798;2024-02-21T08:15:38;101383.63;;;8.32;81.62
2178;BME280;1095;50.992;6.798;2024-02-21T08:18:07;101381.53;;;8.38;80.98
2178;BME280;1095;50.992;6.798;2024-02-21T08:20:34;101378.06;;;8.37;81.20
2178;BME280;1095;50.992;6.798;2024-02-21T08:23:00;101373.53;;;8.39;80.83
2178;BME280;1095;50.992;6.798;2024-02-21T08:25:29;101368.91;;;8.43;80.31
2178;BME280;1095;50.992;6.798;2024-02-21T08:27:57;101355.81;;;8.41;80.36
2178;BME280;1095;50.992;6.798;2024-02-21T08:30:24;101352.88;;;8.46;81.00
2178;BME280;1095;50.992;6.798;2024-02-21T08:32:51;101345.91;;;8.45;80.18
2178;BME280;1095;50.992;6.798;2024-02-21T08:35:19;101343.69;;;8.51;80.35
2178;BME280;1095;50.992;6.798;2024-02-21T08:37:47;101349.94;;;8.50;80.23
2178;BME280;1095;50.992;6.798;2024-02-21T08:40:26;101337.78;;;8.48;79.80
2178;BME280;1095;50.992;6.798;2024-02-21T08:42:54;101339.59;;;8.60;80.19
2178;BME280;1095;50.992;6.798;2024-02-21T08:45:21;101328.19;;;8.59;79.32
2178;BME280;1095;50.992;6.798;2024-02-21T08:47:48;101328.19;;;8.59;78.60
2178;BME280;1095;50.992;6.798;2024-02-21T08:50:28;101327.25;;;8.73;78.34
2178;BME280;1095;50.992;6.798;2024-02-21T08:52:57;101324.94;;;8.81;77.39
2178;BME280;1095;50.992;6.798;2024-02-21T08:55:24;101313.63;;;8.92;77.21
2178;BME280;1095;50.992;6.798;2024-02-21T08:57:55;101311.81;;;9.18;76.29
2178;BME280;1095;50.992;6.798;2024-02-21T09:00:21;101305.16;;;9.25;75.71
2178;BME280;1095;50.992;6.798;2024-02-21T09:02:52;101305.34;;;9.35;74.02
2178;BME280;1095;50.992;6.798;2024-02-21T09:05:20;101299.00;;;9.38;74.30
2178;BME280;1095;50.992;6.798;2024-02-21T09:07:47;101291.97;;;9.49;74.13
2178;BME280;1095;50.992;6.798;2024-02-21T09:10:14;101294.66;;;9.36;74.21
2178;BME280;1095;50.992;6.798;2024-02-21T09:12:40;101285.47;;;9.42;73.86
2178;BME280;1095;50.992;6.798;2024-02-21T09:15:09;101283.56;;;9.31;74.28
2178;BME280;1095;50.992;6.798;2024-02-21T09:17:36;101293.47;;;9.41;73.50
2178;BME280;1095;50.992;6.798;2024-02-21T09:20:05;101279.94;;;9.45;73.75
2178;BME280;1095;50.992;6.798;2024-02-21T09:22:33;101286.03;;;9.58;73.30
2178;BME280;1095;50.992;6.798;2024-02-21T09:25:01;101279.38;;;9.77;72.05
2178;BME280;1095;50.992;6.798;2024-02-21T09:27:28;101278.47;;;9.89;71.54
2178;BME280;1095;50.992;6.798;2024-02-21T09:29:55;101270.84;;;10.08;70.55
2178;BME280;1095;50.992;6.798;2024-02-21T09:32:23;101270.63;;;10.11;69.65
2178;BME280;1095;50.992;6.798;2024-02-21T09:34:49;101268.72;;;10.13;70.00
2178;BME280;1095;50.992;6.798;2024-02-21T09:37:16;101254.06;;;10.09;68.94
2178;BME280;1095;50.992;6.798;2024-02-21T09:39:43;101255.94;;;10.07;69.03
2178;BME280;1095;50.992;6.798;2024-02-21T09:42:11;101250.22;;;10.13;68.23
2178;BME280;1095;50.992;6.798;2024-02-21T09:44:38;101252.13;;;10.11;68.47
2178;BME280;1095;50.992;6.798;2024-02-21T09:47:08;101242.81;;;10.30;67.26
2178;BME280;1095;50.992;6.798;2024-02-21T09:49:40;101230.44;;;10.30;65.99
2178;BME280;1095;50.992;6.798;2024-02-21T09:52:08;101227.06;;;10.28;65.80
2178;BME280;1095;50.992;6.798;2024-02-21T09:54:41;101229.59;;;10.30;66.33
2178;BME280;1095;50.992;6.798;2024-02-21T09:57:10;101231.44;;;10.17;65.61
2178;BME280;1095;50.992;6.798;2024-02-21T09:59:39;101237.22;;;10.22;65.57
2178;BME280;1095;50.992;6.798;2024-02-21T10:02:07;101227.13;;;10.16;65.69
2178;BME280;1095;50.992;6.798;2024-02-21T10:04:37;101236.75;;;10.17;65.61
2178;BME280;1095;50.992;6.798;2024-02-21T10:07:06;101240.91;;;10.43;65.39
2178;BME280;1095;50.992;6.798;2024-02-21T10:09:34;101242.97;;;10.51;65.62
2178;BME280;1095;50.992;6.798;2024-02-21T10:12:11;101242.97;;;10.51;63.89
2178;BME280;1095;50.992;6.798;2024-02-21T10:14:38;101240.47;;;10.49;63.34
2178;BME280;1095;50.992;6.798;2024-02-21T10:17:14;101231.03;;;10.34;63.54
2178;BME280;1095;50.992;6.798;2024-02-21T10:19:45;101231.00;;;10.23;64.07
2178;BME280;1095;50.992;6.798;2024-02-21T10:22:15;101225.63;;;10.35;64.02
2178;BME280;1095;50.992;6.798;2024-02-21T10:24:44;101219.75;;;10.32;63.47
2178;BME280;1095;50.992;6.798;2024-02-21T10:27:11;101214.69;;;10.40;63.53
2178;BME280;1095;50.992;6.798;2024-02-21T10:29:38;101211.09;;;10.41;63.50
2178;BME280;1095;50.992;6.798;2024-02-21T10:32:07;101207.72;;;10.28;64.41
2178;BME280;1095;50.992;6.798;2024-02-21T10:34:34;101208.00;;;10.58;63.59
2178;BME280;1095;50.992;6.798;2024-02-21T10:37:06;101205.44;;;10.57;63.42
2178;BME280;1095;50.992;6.798;2024-02-21T10:39:34;101200.06;;;10.58;63.36
2178;BME280;1095;50.992;6.798;2024-02-21T10:42:02;101200.41;;;10.65;63.40
2178;BME280;1095;50.992;6.798;2024-02-21T10:44:31;101197.03;;;10.52;63.47
2178;BME280;1095;50.992;6.798;2024-02-21T10:46:58;101187.03;;;10.78;62.57
2178;BME280;1095;50.992;6.798;2024-02-21T10:49:26;101184.25;;;10.79;63.29
2178;BME280;1095;50.992;6.798;2024-02-21T10:51:55;101172.69;;;10.92;62.77
2178;BME280;1095;50.992;6.798;2024-02-21T10:54:39;101155.34;;;10.99;62.03
2178;BME280;1095;50.992;6.798;2024-02-21T10:57:08;101145.38;;;10.91;62.19
2178;BME280;1095;50.992;6.798;2024-02-21T10:59:39;101146.06;;;11.04;61.43
2178;BME280;1095;50.992;6.798;2024-02-21T11:02:06;101134.28;;;10.97;61.65
2178;BME280;1095;50.992;6.798;2024-02-21T11:04:34;101127.44;;;10.95;60.90
2178;BME280;1095;50.992;6.798;2024-02-21T11:07:03;101118.16;;;10.89;61.35
2178;BME280;1095;50.992;6.798;2024-02-21T11:09:32;101112.75;;;10.91;61.12
2178;BME280;1095;50.992;6.798;2024-02-21T11:12:01;101100.06;;;11.05;61.68
2178;BME280;1095;50.992;6.798;2024-02-21T11:14:29;101086.81;;;11.05;60.59
2178;BME280;1095;50.992;6.798;2024-02-21T11:16:58;101101.66;;;11.29;61.88
2178;BME280;1095;50.992;6.798;2024-02-21T11:19:28;101081.97;;;11.10;60.79
2178;BME280;1095;50.992;6.798;2024-02-21T11:21:57;101071.69;;;10.96;60.99
2178;BME280;1095;50.992;6.798;2024-02-21T11:24:28;101065.00;;;11.13;60.75
2178;BME280;1095;50.992;6.798;2024-02-21T11:27:07;101044.41;;;11.17;60.23
2178;BME280;1095;50.992;6.798;2024-02-21T11:29:39;101035.94;;;11.23;60.44
2178;BME280;1095;50.992;6.798;2024-02-21T11:32:08;101036.50;;;11.05;61.86
2178;BME280;1095;50.992;6.798;2024-02-21T11:34:35;101022.72;;;11.11;62.00
2178;BME280;1095;50.992;6.798;2024-02-21T11:37:13;101002.22;;;11.04;60.72
2178;BME280;1095;50.992;6.798;2024-02-21T11:39:41;100999.56;;;11.04;61.16
2178;BME280;1095;50.992;6.798;2024-02-21T11:42:09;100995.78;;;11.06;61.22
2178;BME280;1095;50.992;6.798;2024-02-21T11:44:38;100985.19;;;11.06;60.03
2178;BME280;1095;50.992;6.798;2024-02-21T11:47:05;100989.16;;;11.12;59.94
2178;BME280;1095;50.992;6.798;2024-02-21T11:49:36;100981.78;;;11.16;60.55
2178;BME280;1095;50.992;6.798;2024-02-21T11:52:04;100973.84;;;11.16;60.80
2178;BME280;1095;50.992;6.798;2024-02-21T11:54:32;100963.22;;;11.16;60.94
2178;BME280;1095;50.992;6.798;2024-02-21T11:57:00;100960.13;;;11.10;60.76
2178;BME280;1095;50.992;6.798;2024-02-21T11:59:30;100948.13;;;11.27;61.70
2178;BME280;1095;50.992;6.798;2024-02-21T12:02:01;100942.78;;;11.18;60.86
2178;BME280;1095;50.992;6.798;2024-02-21T12:04:33;100921.22;;;11.32;60.47
2178;BME280;1095;50.992;6.798;2024-02-21T12:07:04;100918.94;;;11.18;60.40
2178;BME280;1095;50.992;6.798;2024-02-21T12:09:31;100906.31;;;11.10;61.13
2178;BME280;1095;50.992;6.798;2024-02-21T12:11:59;100893.28;;;11.18;60.52
2178;BME280;1095;50.992;6.798;2024-02-21T12:14:30;100872.88;;;11.09;60.56
2178;BME280;1095;50.992;6.798;2024-02-21T12:17:01;100884.06;;;11.12;61.14
2178;BME280;1095;50.992;6.798;2024-02-21T12:19:36;100872.22;;;11.17;61.22
2178;BME280;1095;50.992;6.798;2024-02-21T12:22:08;100870.00;;;11.22;60.31
2178;BME280;1095;50.992;6.798;2024-02-21T12:24:39;100853.16;;;11.02;60.64
2178;BME280;1095;50.992;6.798;2024-02-21T12:27:17;100846.94;;;11.03;61.53
2178;BME280;1095;50.992;6.798;2024-02-21T12:29:49;100834.28;;;11.16;60.60
2178;BME280;1095;50.992;6.798;2024-02-21T12:32:21;100804.88;;;11.19;61.13
2178;BME280;1095;50.992;6.798;2024-02-21T12:34:52;100796.53;;;11.24;60.70
2178;BME280;1095;50.992;6.798;2024-02-21T12:37:27;100762.22;;;11.12;60.93
2178;BME280;1095;50.992;6.798;2024-02-21T12:39:57;100760.25;;;11.14;61.88
2178;BME280;1095;50.992;6.798;2024-02-21T12:42:25;100741.63;;;11.26;61.36
2178;BME280;1095;50.992;6.798;2024-02-21T12:44:55;100753.31;;;11.33;60.39
2178;BME280;1095;50.992;6.798;2024-02-21T12:47:24;100767.06;;;11.67;60.07
2178;BME280;1095;50.992;6.798;2024-02-21T12:50:03;100795.50;;;11.55;60.65
2178;BME280;1095;50.992;6.798;2024-02-21T12:52:39;100800.28;;;11.61;59.74
2178;BME280;1095;50.992;6.798;2024-02-21T12:55:06;100812.34;;;11.85;59.01
2178;BME280;1095;50.992;6.798;2024-02-21T12:57:35;100771.56;;;11.86;59.10
2178;BME280;1095;50.992;6.798;2024-02-21T13:00:06;100773.53;;;11.84;58.23
2178;BME280;1095;50.992;6.798;2024-02-21T13:02:34;100749.50;;;12.05;58.36
2178;BME280;1095;50.992;6.798;2024-02-21T13:05:01;100749.81;;;11.92;59.46
2178;BME280;1095;50.992;6.798;2024-02-21T13:07:30;100732.31;;;12.19;58.83
2178;BME280;1095;50.992;6.798;2024-02-21T13:09:57;100724.63;;;12.35;59.22
2178;BME280;1095;50.992;6.798;2024-02-21T13:12:26;100738.28;;;12.40;58.33
2178;BME280;1095;50.992;6.798;2024-02-21T13:14:56;100723.81;;;12.25;57.05
2178;BME280;1095;50.992;6.798;2024-02-21T13:17:34;100724.13;;;12.02;57.23
2178;BME280;1095;50.992;6.798;2024-02-21T13:20:01;100714.06;;;12.16;57.92
2178;BME280;1095;50.992;6.798;2024-02-21T13:22:34;100720.63;;;12.11;57.03
2178;BME280;1095;50.992;6.798;2024-02-21T13:25:00;100707.31;;;12.21;58.43
2178;BME280;1095;50.992;6.798;2024-02-21T13:27:27;100709.19;;;12.01;58.12
2178;BME280;1095;50.992;6.798;2024-02-21T13:29:56;100705.25;;;12.05;57.69
2178;BME280;1095;50.992;6.798;2024-02-21T13:32:28;100695.91;;;11.92;57.34
2178;BME280;1095;50.992;6.798;2024-02-21T13:34:57;100687.53;;;11.96;57.65
2178;BME280;1095;50.992;6.798;2024-02-21T13:37:26;100683.06;;;11.87;58.30
2178;BME280;1095;50.992;6.798;2024-02-21T13:39:57;100670.25;;;11.82;58.13
2178;BME280;1095;50.992;6.798;2024-02-21T13:42:24;100664.38;;;11.79;57.78
2178;BME280;1095;50.992;6.798;2024-02-21T13:44:53;100669.66;;;11.69;57.94
2178;BME280;1095;50.992;6.798;2024-02-21T13:47:23;100655.59;;;11.59;57.47
2178;BME280;1095;50.992;6.798;2024-02-21T13:49:51;100658.22;;;11.69;58.35
2178;BME280;1095;50.992;6.798;2024-02-21T13:52:20;100644.84;;;11.80;58.53
2178;BME280;1095;50.992;6.798;2024-02-21T13:54:47;100635.63;;;11.74;57.66
2178;BME280;1095;50.992;6.798;2024-02-21T13:57:17;100623.22;;;11.55;57.55
2178;BME280;1095;50.992;6.798;2024-02-21T13:59:49;100632.53;;;11.69;57.94
2178;BME280;1095;50.992;6.798;2024-02-21T14:02:24;100618.34;;;11.70;57.98
2178;BME280;1095;50.992;6.798;2024-02-21T14:07:20;100619.44;;;11.68;58.03
2178;BME280;1095;50.992;6.798;2024-02-21T14:09:47;100621.84;;;11.61;58.34
2178;BME280;1095;50.992;6.798;2024-02-21T14:12:15;100617.19;;;11.73;58.88
2178;BME280;1095;50.992;6.798;2024-02-21T14:14:45;100610.38;;;11.80;57.99
2178;BME280;1095;50.992;6.798;2024-02-21T14:17:12;100602.41;;;11.80;58.34
2178;BME280;1095;50.992;6.798;2024-02-21T14:19:39;100588.31;;;11.70;58.62
2178;BME280;1095;50.992;6.798;2024-02-21T14:22:05;100592.63;;;11.80;59.02
2178;BME280;1095;50.992;6.798;2024-02-21T14:24:33;100583.28;;;11.86;57.88
2178;BME280;1095;50.992;6.798;2024-02-21T14:27:00;100574.06;;;11.90;57.73
2178;BME280;1095;50.992;6.798;2024-02-21T14:29:27;100569.03;;;11.77;58.78
2178;BME280;1095;50.992;6.798;2024-02-21T14:31:54;100575.47;;;11.94;59.37
2178;BME280;1095;50.992;6.798;2024-02-21T14:34:21;100564.84;;;11.94;58.88
2178;BME280;1095;50.992;6.798;2024-02-21T14:36:47;100553.56;;;11.92;59.33
2178;BME280;1095;50.992;6.798;2024-02-21T14:39:14;100556.63;;;11.97;59.18
2178;BME280;1095;50.992;6.798;2024-02-21T14:41:42;100546.53;;;12.01;58.98
2178;BME280;1095;50.992;6.798;2024-02-21T14:44:08;100541.66;;;11.96;59.10
2178;BME280;1095;50.992;6.798;2024-02-21T14:46:36;100538.50;;;11.93;58.27
2178;BME280;1095;50.992;6.798;2024-02-21T14:49:03;100534.13;;;12.01;59.30
2178;BME280;1095;50.992;6.798;2024-02-21T14:51:30;100532.41;;;12.10;58.93
2178;BME280;1095;50.992;6.798;2024-02-21T14:53:56;100515.28;;;11.95;59.02
2178;BME280;1095;50.992;6.798;2024-02-21T14:56:23;100517.50;;;11.99;59.32
2178;BME280;1095;50.992;6.798;2024-02-21T14:58:51;100513.75;;;12.02;58.99
2178;BME280;1095;50.992;6.798;2024-02-21T15:01:18;100508.03;;;11.97;59.54
2178;BME280;1095;50.992;6.798;2024-02-21T15:03:45;100502.59;;;11.98;59.13
2178;BME280;1095;50.992;6.798;2024-02-21T15:06:11;100504.34;;;12.07;58.15
2178;BME280;1095;50.992;6.798;2024-02-21T15:08:38;100502.25;;;12.11;55.45
2178;BME280;1095;50.992;6.798;2024-02-21T15:11:05;100483.13;;;12.07;54.05
2178;BME280;1095;50.992;6.798;2024-02-21T15:13:33;100474.47;;;12.05;52.44
2178;BME280;1095;50.992;6.798;2024-02-21T15:16:01;100473.91;;;12.11;53.16
2178;BME280;1095;50.992;6.798;2024-02-21T15:18:27;100468.78;;;12.00;53.00
2178;BME280;1095;50.992;6.798;2024-02-21T15:20:54;100460.97;;;11.99;55.38
2178;BME280;1095;50.992;6.798;2024-02-21T15:23:21;100443.03;;;11.83;57.40
2178;BME280;1095;50.992;6.798;2024-02-21T15:25:49;100432.06;;;11.68;57.28
2178;BME280;1095;50.992;6.798;2024-02-21T15:28:16;100427.34;;;11.62;56.82
2178;BME280;1095;50.992;6.798;2024-02-21T15:30:42;100430.16;;;11.51;56.67
2178;BME280;1095;50.992;6.798;2024-02-21T15:33:11;100419.13;;;11.55;54.45
2178;BME280;1095;50.992;6.798;2024-02-21T15:35:38;100425.69;;;11.51;54.96
2178;BME280;1095;50.992;6.798;2024-02-21T15:38:05;100423.25;;;11.40;53.94
2178;BME280;1095;50.992;6.798;2024-02-21T15:40:31;100419.66;;;11.31;53.93
2178;BME280;1095;50.992;6.798;2024-02-21T15:43:01;100417.28;;;11.28;53.51
2178;BME280;1095;50.992;6.798;2024-02-21T15:45:27;100411.56;;;11.23;55.36
2178;BME280;1095;50.992;6.798;2024-02-21T15:47:54;100407.00;;;11.16;54.34
2178;BME280;1095;50.992;6.798;2024-02-21T15:50:22;100401.28;;;11.10;54.40
2178;BME280;1095;50.992;6.798;2024-02-21T15:52:48;100404.25;;;11.07;54.31
2178;BME280;1095;50.992;6.798;2024-02-21T15:55:15;100397.84;;;11.00;54.57
2178;BME280;1095;50.992;6.798;2024-02-21T15:57:42;100410.09;;;11.01;54.72
2178;BME280;1095;50.992;6.798;2024-02-21T16:00:10;100400.09;;;10.95;55.67
2178;BME280;1095;50.992;6.798;2024-02-21T16:02:37;100392.84;;;10.87;56.08
2178;BME280;1095;50.992;6.798;2024-02-21T16:05:07;100390.91;;;10.80;57.57
2178;BME280;1095;50.992;6.798;2024-02-21T16:07:36;100376.41;;;10.74;56.94
2178;BME280;1095;50.992;6.798;2024-02-21T16:10:04;100373.94;;;10.73;56.95
2178;BME280;1095;50.992;6.798;2024-02-21T16:12:31;100367.25;;;10.69;57.69
2178;BME280;1095;50.992;6.798;2024-02-21T16:14:58;100368.66;;;10.63;56.99
2178;BME280;1095;50.992;6.798;2024-02-21T16:17:24;100356.25;;;10.63;56.77
2178;BME280;1095;50.992;6.798;2024-02-21T16:19:51;100346.50;;;10.64;56.34
2178;BME280;1095;50.992;6.798;2024-02-21T16:22:18;100339.94;;;10.68;56.78
2178;BME280;1095;50.992;6.798;2024-02-21T16:24:46;100326.97;;;10.65;56.30
2178;BME280;1095;50.992;6.798;2024-02-21T16:27:14;100327.69;;;10.67;56.03
2178;BME280;1095;50.992;6.798;2024-02-21T16:29:41;100319.44;;;10.70;57.30
2178;BME280;1095;50.992;6.798;2024-02-21T16:32:07;100299.13;;;10.61;57.01
2178;BME280;1095;50.992;6.798;2024-02-21T16:34:34;100294.13;;;10.48;56.94
2178;BME280;1095;50.992;6.798;2024-02-21T16:37:01;100293.19;;;10.49;56.57
2178;BME280;1095;50.992;6.798;2024-02-21T16:39:28;100295.69;;;10.41;57.39
2178;BME280;1095;50.992;6.798;2024-02-21T16:41:55;100297.50;;;10.41;57.91
2178;BME280;1095;50.992;6.798;2024-02-21T16:44:25;100279.94;;;10.40;56.87
2178;BME280;1095;50.992;6.798;2024-02-21T16:46:53;100278.72;;;10.34;57.01
2178;BME280;1095;50.992;6.798;2024-02-21T16:49:19;100278.56;;;10.35;57.45
2178;BME280;1095;50.992;6.798;2024-02-21T16:51:46;100283.03;;;10.35;56.68
2178;BME280;1095;50.992;6.798;2024-02-21T16:54:15;100290.97;;;10.35;57.70
2178;BME280;1095;50.992;6.798;2024-02-21T16:56:42;100286.81;;;10.32;57.96
2178;BME280;1095;50.992;6.798;2024-02-21T16:59:10;100279.97;;;10.30;56.76
2178;BME280;1095;50.992;6.798;2024-02-21T17:01:37;100270.09;;;10.32;57.38